Fsl New York — 9VBQ8 — position and weather

sailwx.info

Track history (hours):
 
Tides and Currents Weather Stations Pressure Air Temp Water Temp Dewpoint Dewpoint Depression Visibility Wind Speed Wind Dir Waves Ship Positions

Fsl New York

Last reported at 2014-Jul-28 02:33 UTC. Time now 2014-Jul-31 17:42 UTC.
Position N 29°28' W 094°51'.

Length 138 m; draft 7.3 m.

Type: Tanker. MMSI: 565174000.

Date/timePositionNaut miles runAvg speedWind from/ knotsBaromVisibWave heightAir tempDewpointWater temp
2014-Jul-28 02:33N 29°28' W 094°51'1312.8
2014-Jul-28 01:33N 29°39' W 094°58'9 9.2
2014-Jul-28 00:34N 29°46' W 095°05'6 5.7
2014-Jul-27 23:33N 29°45' W 095°12'4 4.3
2014-Jul-27 22:33N 29°44' W 095°17'1 1.1
2014-Jul-27 21:32N 29°45' W 095°17'0 0.0
2014-Jul-27 20:14N 29°45' W 095°17'0 0.0
2014-Jul-27 16:20N 29°45' W 095°17'0 0.0
2014-Jul-27 15:32N 29°45' W 095°17'0 0.0
2014-Jul-27 12:32N 29°45' W 095°17'0 0.0
2014-Jul-27 07:23N 29°45' W 095°17'0 0.0
2014-Jul-27 06:32N 29°45' W 095°17'67706769.8
2014-Jul-27 05:32S 82°06' W 111°51'67705641.5
2014-Jul-27 04:20N 29°45' W 095°17'0 0.0
2014-Jul-27 03:29N 29°45' W 095°17'0 0.0
2014-Jul-27 02:32N 29°45' W 095°17'0 0.0
2014-Jul-26 20:32N 29°45' W 095°17'4 4.3
2014-Jul-26 19:34N 29°44' W 095°13'6 5.6
2014-Jul-26 18:34N 29°45' W 095°06'0 0.2
2014-Jul-26 16:27N 29°45' W 095°06'0 0.0
2014-Jul-26 15:30N 29°45' W 095°06'0 0.0
2014-Jul-26 14:33N 29°45' W 095°06'0 0.0
2014-Jul-26 13:33N 29°45' W 095°06'0 0.0
2014-Jul-26 12:21N 29°45' W 095°06'0 0.0
2014-Jul-26 11:21N 29°45' W 095°06'0 0.0
2014-Jul-26 10:33N 29°45' W 095°06'0 0.0
2014-Jul-26 09:33N 29°45' W 095°06'0 0.0
2014-Jul-26 08:27N 29°45' W 095°06'0 0.0
2014-Jul-26 07:33N 29°45' W 095°06'0 0.0
2014-Jul-26 06:33N 29°45' W 095°06'0 0.0
2014-Jul-26 05:33N 29°45' W 095°06'0 0.0
2014-Jul-26 04:33N 29°45' W 095°06'0 0.0
2014-Jul-26 03:30N 29°45' W 095°06'0 0.0
2014-Jul-26 02:30N 29°45' W 095°06'0 0.0
2014-Jul-26 01:30N 29°45' W 095°06'0 0.0
2014-Jul-26 00:33N 29°45' W 095°06'0 0.0
2014-Jul-25 23:24N 29°45' W 095°06'0 0.3
2014-Jul-25 22:33N 29°45' W 095°06'4 3.9
2014-Jul-25 21:33N 29°44' W 095°02'1110.8
2014-Jul-25 20:33N 29°34' W 094°56'11 0.3
2014-Jul-24 10:33N 29°24' W 094°49'1211.8
2014-Jul-24 09:33N 29°35' W 094°56'5 5.4
2014-Jul-24 08:33N 29°37' W 095°02'0 0.0
2014-Jul-24 07:28N 29°37' W 095°02'0 0.0
2014-Jul-24 06:31N 29°37' W 095°02'0 0.0
2014-Jul-24 05:31N 29°37' W 095°02'0 0.0
2014-Jul-24 04:31N 29°37' W 095°02'0 0.0
2014-Jul-24 03:31N 29°37' W 095°02'0 0.0
2014-Jul-24 02:31N 29°37' W 095°02'0 0.0
2014-Jul-24 01:28N 29°37' W 095°02'0 0.0
2014-Jul-24 00:31N 29°37' W 095°02'0 0.0
2014-Jul-23 23:28N 29°37' W 095°02'0 0.0
2014-Jul-23 22:31N 29°37' W 095°02'0 0.0
2014-Jul-23 21:31N 29°37' W 095°02'0 0.0
2014-Jul-23 20:31N 29°37' W 095°02'0 0.0
2014-Jul-23 19:31N 29°37' W 095°02'0 0.0
2014-Jul-23 18:33N 29°37' W 095°02'5 5.3
2014-Jul-23 17:33N 29°35' W 094°56'  
2014-Jul-20 08:30N 29°60' W 090°26'1111.7
2014-Jul-20 07:32N 30°03' W 090°39'1310.4
2014-Jul-20 06:17N 30°04' W 090°53'1 0.0
2014-Jul-18 21:19N 30°04' W 090°52'5 7.0
2014-Jul-18 20:33N 29°60' W 090°48'  
Track history (hours):
 
Tides and Currents Weather Stations Pressure Air Temp Water Temp Dewpoint Dewpoint Depression Visibility Wind Speed Wind Dir Waves Ship Positions

Fsl New York

Last reported at 2014-Jul-28 02:33 UTC. Time now 2014-Jul-31 17:42 UTC.
Position N 29°28' W 094°51'.

Length 138 m; draft 7.3 m.

Type: Tanker. MMSI: 565174000.

Date/timePositionNaut miles runAvg speedWind from/ knotsBaromVisibWave heightAir tempDewpointWater temp
2014-Jul-28 02:33N 29°28' W 094°51'1312.8
2014-Jul-28 01:33N 29°39' W 094°58'9 9.2
2014-Jul-28 00:34N 29°46' W 095°05'6 5.7
2014-Jul-27 23:33N 29°45' W 095°12'4 4.3
2014-Jul-27 22:33N 29°44' W 095°17'1 1.1
2014-Jul-27 21:32N 29°45' W 095°17'0 0.0
2014-Jul-27 20:14N 29°45' W 095°17'0 0.0
2014-Jul-27 16:20N 29°45' W 095°17'0 0.0
2014-Jul-27 15:32N 29°45' W 095°17'0 0.0
2014-Jul-27 12:32N 29°45' W 095°17'0 0.0
2014-Jul-27 07:23N 29°45' W 095°17'0 0.0
2014-Jul-27 06:32N 29°45' W 095°17'67706769.8
2014-Jul-27 05:32S 82°06' W 111°51'67705641.5
2014-Jul-27 04:20N 29°45' W 095°17'0 0.0
2014-Jul-27 03:29N 29°45' W 095°17'0 0.0
2014-Jul-27 02:32N 29°45' W 095°17'0 0.0
2014-Jul-26 20:32N 29°45' W 095°17'4 4.3
2014-Jul-26 19:34N 29°44' W 095°13'6 5.6
2014-Jul-26 18:34N 29°45' W 095°06'0 0.2
2014-Jul-26 16:27N 29°45' W 095°06'0 0.0
2014-Jul-26 15:30N 29°45' W 095°06'0 0.0
2014-Jul-26 14:33N 29°45' W 095°06'0 0.0
2014-Jul-26 13:33N 29°45' W 095°06'0 0.0
2014-Jul-26 12:21N 29°45' W 095°06'0 0.0
2014-Jul-26 11:21N 29°45' W 095°06'0 0.0
2014-Jul-26 10:33N 29°45' W 095°06'0 0.0
2014-Jul-26 09:33N 29°45' W 095°06'0 0.0
2014-Jul-26 08:27N 29°45' W 095°06'0 0.0
2014-Jul-26 07:33N 29°45' W 095°06'0 0.0
2014-Jul-26 06:33N 29°45' W 095°06'0 0.0
2014-Jul-26 05:33N 29°45' W 095°06'0 0.0
2014-Jul-26 04:33N 29°45' W 095°06'0 0.0
2014-Jul-26 03:30N 29°45' W 095°06'0 0.0
2014-Jul-26 02:30N 29°45' W 095°06'0 0.0
2014-Jul-26 01:30N 29°45' W 095°06'0 0.0
2014-Jul-26 00:33N 29°45' W 095°06'0 0.0
2014-Jul-25 23:24N 29°45' W 095°06'0 0.3
2014-Jul-25 22:33N 29°45' W 095°06'4 3.9
2014-Jul-25 21:33N 29°44' W 095°02'1110.8
2014-Jul-25 20:33N 29°34' W 094°56'11 0.3
2014-Jul-24 10:33N 29°24' W 094°49'1211.8
2014-Jul-24 09:33N 29°35' W 094°56'5 5.4
2014-Jul-24 08:33N 29°37' W 095°02'0 0.0
2014-Jul-24 07:28N 29°37' W 095°02'0 0.0
2014-Jul-24 06:31N 29°37' W 095°02'0 0.0
2014-Jul-24 05:31N 29°37' W 095°02'0 0.0
2014-Jul-24 04:31N 29°37' W 095°02'0 0.0
2014-Jul-24 03:31N 29°37' W 095°02'0 0.0
2014-Jul-24 02:31N 29°37' W 095°02'0 0.0
2014-Jul-24 01:28N 29°37' W 095°02'0 0.0
2014-Jul-24 00:31N 29°37' W 095°02'0 0.0
2014-Jul-23 23:28N 29°37' W 095°02'0 0.0
2014-Jul-23 22:31N 29°37' W 095°02'0 0.0
2014-Jul-23 21:31N 29°37' W 095°02'0 0.0
2014-Jul-23 20:31N 29°37' W 095°02'0 0.0
2014-Jul-23 19:31N 29°37' W 095°02'0 0.0
2014-Jul-23 18:33N 29°37' W 095°02'5 5.3
2014-Jul-23 17:33N 29°35' W 094°56'  
2014-Jul-20 08:30N 29°60' W 090°26'1111.7
2014-Jul-20 07:32N 30°03' W 090°39'1310.4
2014-Jul-20 06:17N 30°04' W 090°53'1 0.0
2014-Jul-18 21:19N 30°04' W 090°52'5 7.0
2014-Jul-18 20:33N 29°60' W 090°48'  

Dump ship's entire track history